sensor_id;sensor_type;location;lat;lon;timestamp;P1;durP1;ratioP1;P2;durP2;ratioP2
54261;SDS011;40174;52.364;6.452;2023-03-05T00:01:17;4.35;;;1.27;;
54261;SDS011;40174;52.364;6.452;2023-03-05T00:03:47;5.15;;;1.10;;
54261;SDS011;40174;52.364;6.452;2023-03-05T00:06:13;6.45;;;1.17;;
54261;SDS011;40174;52.364;6.452;2023-03-05T00:08:41;8.38;;;1.25;;
54261;SDS011;40174;52.364;6.452;2023-03-05T00:11:08;6.07;;;1.05;;
54261;SDS011;40174;52.364;6.452;2023-03-05T00:13:36;6.35;;;1.17;;
54261;SDS011;40174;52.364;6.452;2023-03-05T00:16:05;7.55;;;1.33;;
54261;SDS011;40174;52.364;6.452;2023-03-05T00:18:34;2.92;;;0.98;;
54261;SDS011;40174;52.364;6.452;2023-03-05T00:21:01;4.00;;;1.05;;
54261;SDS011;40174;52.364;6.452;2023-03-05T00:23:28;3.63;;;1.20;;
54261;SDS011;40174;52.364;6.452;2023-03-05T00:25:54;5.30;;;1.20;;
54261;SDS011;40174;52.364;6.452;2023-03-05T00:28:21;6.10;;;1.02;;
54261;SDS011;40174;52.364;6.452;2023-03-05T00:30:48;3.38;;;1.55;;
54261;SDS011;40174;52.364;6.452;2023-03-05T00:33:14;8.63;;;1.20;;
54261;SDS011;40174;52.364;6.452;2023-03-05T00:35:43;6.70;;;1.23;;
54261;SDS011;40174;52.364;6.452;2023-03-05T00:38:11;5.88;;;1.25;;
54261;SDS011;40174;52.364;6.452;2023-03-05T00:40:39;2.17;;;1.08;;
54261;SDS011;40174;52.364;6.452;2023-03-05T00:43:06;7.90;;;1.42;;
54261;SDS011;40174;52.364;6.452;2023-03-05T00:45:33;7.97;;;1.75;;
54261;SDS011;40174;52.364;6.452;2023-03-05T00:48:00;4.30;;;0.90;;
54261;SDS011;40174;52.364;6.452;2023-03-05T00:50:26;5.28;;;1.20;;
54261;SDS011;40174;52.364;6.452;2023-03-05T00:52:55;12.25;;;1.60;;
54261;SDS011;40174;52.364;6.452;2023-03-05T00:55:21;4.18;;;0.98;;
54261;SDS011;40174;52.364;6.452;2023-03-05T00:57:48;7.68;;;0.90;;
54261;SDS011;40174;52.364;6.452;2023-03-05T01:00:15;10.50;;;1.67;;
54261;SDS011;40174;52.364;6.452;2023-03-05T01:02:45;4.13;;;1.05;;
54261;SDS011;40174;52.364;6.452;2023-03-05T01:05:12;5.82;;;1.02;;
54261;SDS011;40174;52.364;6.452;2023-03-05T01:07:39;5.55;;;1.20;;
54261;SDS011;40174;52.364;6.452;2023-03-05T01:10:08;4.93;;;1.08;;
54261;SDS011;40174;52.364;6.452;2023-03-05T01:12:35;7.38;;;1.60;;
54261;SDS011;40174;52.364;6.452;2023-03-05T01:15:02;3.72;;;1.13;;
54261;SDS011;40174;52.364;6.452;2023-03-05T01:17:30;5.82;;;1.42;;
54261;SDS011;40174;52.364;6.452;2023-03-05T01:19:56;2.25;;;1.00;;
54261;SDS011;40174;52.364;6.452;2023-03-05T01:22:23;3.35;;;1.17;;
54261;SDS011;40174;52.364;6.452;2023-03-05T01:24:50;11.13;;;1.40;;
54261;SDS011;40174;52.364;6.452;2023-03-05T01:27:19;3.55;;;0.73;;
54261;SDS011;40174;52.364;6.452;2023-03-05T01:29:46;2.38;;;0.85;;
54261;SDS011;40174;52.364;6.452;2023-03-05T01:32:13;8.70;;;1.10;;
54261;SDS011;40174;52.364;6.452;2023-03-05T01:34:40;1.70;;;0.73;;
54261;SDS011;40174;52.364;6.452;2023-03-05T01:37:07;2.47;;;0.90;;
54261;SDS011;40174;52.364;6.452;2023-03-05T01:39:34;6.20;;;0.98;;
54261;SDS011;40174;52.364;6.452;2023-03-05T01:42:01;6.10;;;0.77;;
54261;SDS011;40174;52.364;6.452;2023-03-05T01:44:30;6.40;;;0.90;;
54261;SDS011;40174;52.364;6.452;2023-03-05T01:46:57;4.72;;;0.90;;
54261;SDS011;40174;52.364;6.452;2023-03-05T01:49:28;7.20;;;0.95;;
54261;SDS011;40174;52.364;6.452;2023-03-05T01:51:59;5.78;;;0.90;;
54261;SDS011;40174;52.364;6.452;2023-03-05T01:54:34;3.70;;;1.13;;
54261;SDS011;40174;52.364;6.452;2023-03-05T01:57:06;7.82;;;0.85;;
54261;SDS011;40174;52.364;6.452;2023-03-05T01:59:37;4.68;;;0.70;;
54261;SDS011;40174;52.364;6.452;2023-03-05T02:02:07;1.52;;;0.80;;
54261;SDS011;40174;52.364;6.452;2023-03-05T02:04:35;5.50;;;0.80;;
54261;SDS011;40174;52.364;6.452;2023-03-05T02:07:06;4.65;;;1.02;;
54261;SDS011;40174;52.364;6.452;2023-03-05T02:09:35;2.05;;;0.88;;
54261;SDS011;40174;52.364;6.452;2023-03-05T02:12:03;6.75;;;0.88;;
54261;SDS011;40174;52.364;6.452;2023-03-05T02:14:30;6.00;;;0.93;;
54261;SDS011;40174;52.364;6.452;2023-03-05T02:16:59;4.65;;;1.10;;
54261;SDS011;40174;52.364;6.452;2023-03-05T02:19:26;4.53;;;1.00;;
54261;SDS011;40174;52.364;6.452;2023-03-05T02:21:54;1.77;;;0.82;;
54261;SDS011;40174;52.364;6.452;2023-03-05T02:24:32;3.58;;;0.68;;
54261;SDS011;40174;52.364;6.452;2023-03-05T02:27:01;5.40;;;0.88;;
54261;SDS011;40174;52.364;6.452;2023-03-05T02:29:29;5.95;;;0.85;;
54261;SDS011;40174;52.364;6.452;2023-03-05T02:31:58;6.28;;;1.30;;
54261;SDS011;40174;52.364;6.452;2023-03-05T02:34:25;4.43;;;0.73;;
54261;SDS011;40174;52.364;6.452;2023-03-05T02:43:41;1.23;;;0.50;;
54261;SDS011;40174;52.364;6.452;2023-03-05T02:46:07;5.88;;;0.70;;
54261;SDS011;40174;52.364;6.452;2023-03-05T02:48:35;3.25;;;0.93;;
54261;SDS011;40174;52.364;6.452;2023-03-05T02:51:02;3.30;;;0.82;;
54261;SDS011;40174;52.364;6.452;2023-03-05T02:53:30;5.00;;;1.02;;
54261;SDS011;40174;52.364;6.452;2023-03-05T02:55:57;2.75;;;0.60;;
54261;SDS011;40174;52.364;6.452;2023-03-05T02:58:26;4.15;;;0.70;;
54261;SDS011;40174;52.364;6.452;2023-03-05T03:00:53;2.47;;;1.00;;
54261;SDS011;40174;52.364;6.452;2023-03-05T03:03:20;3.92;;;0.63;;
54261;SDS011;40174;52.364;6.452;2023-03-05T03:05:47;2.95;;;0.98;;
54261;SDS011;40174;52.364;6.452;2023-03-05T03:08:13;6.57;;;0.90;;
54261;SDS011;40174;52.364;6.452;2023-03-05T03:10:40;1.50;;;0.50;;
54261;SDS011;40174;52.364;6.452;2023-03-05T03:13:07;4.47;;;0.80;;
54261;SDS011;40174;52.364;6.452;2023-03-05T03:15:35;6.38;;;0.98;;
54261;SDS011;40174;52.364;6.452;2023-03-05T03:18:02;3.92;;;0.60;;
54261;SDS011;40174;52.364;6.452;2023-03-05T03:20:29;4.97;;;0.98;;
54261;SDS011;40174;52.364;6.452;2023-03-05T03:22:56;5.32;;;0.63;;
54261;SDS011;40174;52.364;6.452;2023-03-05T03:25:23;2.42;;;0.80;;
54261;SDS011;40174;52.364;6.452;2023-03-05T03:27:53;1.65;;;0.70;;
54261;SDS011;40174;52.364;6.452;2023-03-05T03:30:19;3.92;;;0.75;;
54261;SDS011;40174;52.364;6.452;2023-03-05T03:32:47;2.58;;;0.85;;
54261;SDS011;40174;52.364;6.452;2023-03-05T03:35:16;2.03;;;0.40;;
54261;SDS011;40174;52.364;6.452;2023-03-05T03:37:43;3.33;;;0.68;;
54261;SDS011;40174;52.364;6.452;2023-03-05T03:40:10;3.70;;;0.77;;
54261;SDS011;40174;52.364;6.452;2023-03-05T03:42:37;2.28;;;0.43;;
54261;SDS011;40174;52.364;6.452;2023-03-05T03:45:04;4.32;;;0.85;;
54261;SDS011;40174;52.364;6.452;2023-03-05T03:47:31;4.75;;;0.95;;
54261;SDS011;40174;52.364;6.452;2023-03-05T03:49:59;6.25;;;0.80;;
54261;SDS011;40174;52.364;6.452;2023-03-05T03:52:26;5.07;;;0.75;;
54261;SDS011;40174;52.364;6.452;2023-03-05T03:54:53;2.83;;;0.50;;
54261;SDS011;40174;52.364;6.452;2023-03-05T03:57:26;1.83;;;0.52;;
54261;SDS011;40174;52.364;6.452;2023-03-05T03:59:54;7.65;;;0.95;;
54261;SDS011;40174;52.364;6.452;2023-03-05T04:02:21;5.35;;;0.70;;
54261;SDS011;40174;52.364;6.452;2023-03-05T04:04:48;3.42;;;0.73;;
54261;SDS011;40174;52.364;6.452;2023-03-05T04:07:16;5.95;;;0.85;;
54261;SDS011;40174;52.364;6.452;2023-03-05T04:09:42;3.17;;;1.38;;
54261;SDS011;40174;52.364;6.452;2023-03-05T04:12:09;4.22;;;0.65;;
54261;SDS011;40174;52.364;6.452;2023-03-05T04:14:41;5.80;;;0.70;;
54261;SDS011;40174;52.364;6.452;2023-03-05T04:17:08;5.95;;;0.98;;
54261;SDS011;40174;52.364;6.452;2023-03-05T04:19:35;5.03;;;0.82;;
54261;SDS011;40174;52.364;6.452;2023-03-05T04:22:02;6.65;;;1.20;;
54261;SDS011;40174;52.364;6.452;2023-03-05T04:24:30;4.75;;;0.80;;
54261;SDS011;40174;52.364;6.452;2023-03-05T04:26:57;5.57;;;0.93;;
54261;SDS011;40174;52.364;6.452;2023-03-05T04:29:23;1.88;;;0.70;;
54261;SDS011;40174;52.364;6.452;2023-03-05T04:31:51;4.10;;;0.80;;
54261;SDS011;40174;52.364;6.452;2023-03-05T04:34:17;5.30;;;1.15;;
54261;SDS011;40174;52.364;6.452;2023-03-05T04:36:44;4.47;;;0.70;;
54261;SDS011;40174;52.364;6.452;2023-03-05T04:39:11;5.47;;;1.15;;
54261;SDS011;40174;52.364;6.452;2023-03-05T04:41:39;5.18;;;0.80;;
54261;SDS011;40174;52.364;6.452;2023-03-05T04:44:05;7.22;;;1.15;;
54261;SDS011;40174;52.364;6.452;2023-03-05T04:46:32;3.30;;;0.98;;
54261;SDS011;40174;52.364;6.452;2023-03-05T04:48:59;2.45;;;0.63;;
54261;SDS011;40174;52.364;6.452;2023-03-05T04:51:25;3.97;;;0.90;;
54261;SDS011;40174;52.364;6.452;2023-03-05T04:53:52;9.30;;;1.33;;
54261;SDS011;40174;52.364;6.452;2023-03-05T04:56:19;3.20;;;1.10;;
54261;SDS011;40174;52.364;6.452;2023-03-05T04:58:47;6.65;;;1.10;;
54261;SDS011;40174;52.364;6.452;2023-03-05T05:01:13;3.28;;;1.00;;
54261;SDS011;40174;52.364;6.452;2023-03-05T05:03:40;4.20;;;0.82;;
54261;SDS011;40174;52.364;6.452;2023-03-05T05:06:07;3.13;;;0.88;;
54261;SDS011;40174;52.364;6.452;2023-03-05T05:08:33;7.68;;;1.10;;
54261;SDS011;40174;52.364;6.452;2023-03-05T05:11:02;4.32;;;0.80;;
54261;SDS011;40174;52.364;6.452;2023-03-05T05:13:30;2.92;;;1.15;;
54261;SDS011;40174;52.364;6.452;2023-03-05T05:15:58;7.40;;;0.93;;
54261;SDS011;40174;52.364;6.452;2023-03-05T05:18:25;4.70;;;1.00;;
54261;SDS011;40174;52.364;6.452;2023-03-05T05:20:52;3.78;;;0.70;;
54261;SDS011;40174;52.364;6.452;2023-03-05T05:23:18;5.13;;;0.98;;
54261;SDS011;40174;52.364;6.452;2023-03-05T05:25:45;4.65;;;0.93;;
54261;SDS011;40174;52.364;6.452;2023-03-05T05:28:20;6.07;;;0.80;;
54261;SDS011;40174;52.364;6.452;2023-03-05T05:30:47;5.78;;;1.13;;
54261;SDS011;40174;52.364;6.452;2023-03-05T05:33:15;2.80;;;0.82;;
54261;SDS011;40174;52.364;6.452;2023-03-05T05:35:41;8.48;;;1.02;;
54261;SDS011;40174;52.364;6.452;2023-03-05T05:38:08;5.10;;;1.20;;
54261;SDS011;40174;52.364;6.452;2023-03-05T05:40:35;5.00;;;0.98;;
54261;SDS011;40174;52.364;6.452;2023-03-05T05:43:01;9.13;;;1.92;;
54261;SDS011;40174;52.364;6.452;2023-03-05T05:45:28;3.67;;;0.95;;
54261;SDS011;40174;52.364;6.452;2023-03-05T05:47:55;1.35;;;1.00;;
54261;SDS011;40174;52.364;6.452;2023-03-05T05:50:23;4.20;;;0.98;;
54261;SDS011;40174;52.364;6.452;2023-03-05T05:52:51;4.85;;;0.70;;
54261;SDS011;40174;52.364;6.452;2023-03-05T05:55:17;3.95;;;1.02;;
54261;SDS011;40174;52.364;6.452;2023-03-05T05:57:44;8.63;;;1.00;;
54261;SDS011;40174;52.364;6.452;2023-03-05T06:00:12;3.58;;;0.70;;
54261;SDS011;40174;52.364;6.452;2023-03-05T06:02:40;2.88;;;0.90;;
54261;SDS011;40174;52.364;6.452;2023-03-05T06:05:09;7.18;;;1.30;;
54261;SDS011;40174;52.364;6.452;2023-03-05T06:07:40;6.20;;;0.95;;
54261;SDS011;40174;52.364;6.452;2023-03-05T06:10:07;3.83;;;0.65;;
54261;SDS011;40174;52.364;6.452;2023-03-05T06:12:35;3.53;;;0.82;;
54261;SDS011;40174;52.364;6.452;2023-03-05T06:15:02;3.80;;;1.00;;
54261;SDS011;40174;52.364;6.452;2023-03-05T06:17:29;6.20;;;1.25;;
54261;SDS011;40174;52.364;6.452;2023-03-05T06:19:55;2.45;;;0.73;;
54261;SDS011;40174;52.364;6.452;2023-03-05T06:22:22;4.85;;;0.85;;
54261;SDS011;40174;52.364;6.452;2023-03-05T06:24:50;5.55;;;0.95;;
54261;SDS011;40174;52.364;6.452;2023-03-05T06:27:17;1.25;;;0.60;;
54261;SDS011;40174;52.364;6.452;2023-03-05T06:29:43;7.10;;;0.95;;
54261;SDS011;40174;52.364;6.452;2023-03-05T06:32:10;2.08;;;0.65;;
54261;SDS011;40174;52.364;6.452;2023-03-05T06:34:37;2.38;;;0.75;;
54261;SDS011;40174;52.364;6.452;2023-03-05T06:37:03;2.80;;;0.90;;
54261;SDS011;40174;52.364;6.452;2023-03-05T06:39:30;2.60;;;0.77;;
54261;SDS011;40174;52.364;6.452;2023-03-05T06:41:59;6.93;;;0.85;;
54261;SDS011;40174;52.364;6.452;2023-03-05T06:44:25;3.83;;;0.75;;
54261;SDS011;40174;52.364;6.452;2023-03-05T06:46:52;5.78;;;1.25;;
54261;SDS011;40174;52.364;6.452;2023-03-05T06:49:19;1.50;;;0.80;;
54261;SDS011;40174;52.364;6.452;2023-03-05T06:51:45;2.40;;;0.95;;
54261;SDS011;40174;52.364;6.452;2023-03-05T06:54:13;1.80;;;0.60;;
54261;SDS011;40174;52.364;6.452;2023-03-05T06:56:42;4.03;;;0.70;;
54261;SDS011;40174;52.364;6.452;2023-03-05T06:59:12;2.97;;;0.63;;
54261;SDS011;40174;52.364;6.452;2023-03-05T07:01:40;2.72;;;0.60;;
54261;SDS011;40174;52.364;6.452;2023-03-05T07:04:07;10.13;;;0.82;;
54261;SDS011;40174;52.364;6.452;2023-03-05T07:06:35;3.70;;;0.90;;
54261;SDS011;40174;52.364;6.452;2023-03-05T07:09:04;2.13;;;0.60;;
54261;SDS011;40174;52.364;6.452;2023-03-05T07:11:32;0.90;;;0.52;;
54261;SDS011;40174;52.364;6.452;2023-03-05T07:13:59;2.53;;;0.65;;
54261;SDS011;40174;52.364;6.452;2023-03-05T07:16:28;2.08;;;0.65;;
54261;SDS011;40174;52.364;6.452;2023-03-05T07:18:57;2.55;;;0.60;;
54261;SDS011;40174;52.364;6.452;2023-03-05T07:21:25;1.27;;;0.45;;
54261;SDS011;40174;52.364;6.452;2023-03-05T07:23:55;1.70;;;0.52;;
54261;SDS011;40174;52.364;6.452;2023-03-05T07:26:24;2.60;;;0.70;;
54261;SDS011;40174;52.364;6.452;2023-03-05T07:28:52;2.75;;;0.75;;
54261;SDS011;40174;52.364;6.452;2023-03-05T07:31:19;2.40;;;0.55;;
54261;SDS011;40174;52.364;6.452;2023-03-05T07:33:52;1.05;;;0.30;;
54261;SDS011;40174;52.364;6.452;2023-03-05T07:36:19;1.95;;;0.55;;
54261;SDS011;40174;52.364;6.452;2023-03-05T07:38:45;0.70;;;0.30;;
54261;SDS011;40174;52.364;6.452;2023-03-05T07:41:13;2.95;;;0.70;;
54261;SDS011;40174;52.364;6.452;2023-03-05T07:43:44;2.72;;;0.47;;
54261;SDS011;40174;52.364;6.452;2023-03-05T07:46:10;1.55;;;0.30;;
54261;SDS011;40174;52.364;6.452;2023-03-05T07:48:39;1.45;;;0.50;;
54261;SDS011;40174;52.364;6.452;2023-03-05T07:51:08;4.00;;;0.50;;
54261;SDS011;40174;52.364;6.452;2023-03-05T07:53:38;0.22;;;0.20;;
54261;SDS011;40174;52.364;6.452;2023-03-05T07:56:05;3.35;;;0.30;;
54261;SDS011;40174;52.364;6.452;2023-03-05T07:58:32;1.88;;;0.45;;
54261;SDS011;40174;52.364;6.452;2023-03-05T08:00:59;2.78;;;0.55;;
54261;SDS011;40174;52.364;6.452;2023-03-05T08:03:26;1.08;;;0.38;;
54261;SDS011;40174;52.364;6.452;2023-03-05T08:05:52;1.95;;;0.35;;
54261;SDS011;40174;52.364;6.452;2023-03-05T08:08:20;0.38;;;0.30;;
54261;SDS011;40174;52.364;6.452;2023-03-05T08:10:47;0.90;;;0.38;;
54261;SDS011;40174;52.364;6.452;2023-03-05T08:13:13;4.43;;;0.65;;
54261;SDS011;40174;52.364;6.452;2023-03-05T08:15:40;0.77;;;0.30;;
54261;SDS011;40174;52.364;6.452;2023-03-05T08:18:07;2.83;;;0.40;;
54261;SDS011;40174;52.364;6.452;2023-03-05T08:20:33;2.53;;;0.60;;
54261;SDS011;40174;52.364;6.452;2023-03-05T08:23:00;1.83;;;0.30;;
54261;SDS011;40174;52.364;6.452;2023-03-05T08:25:29;0.98;;;0.25;;
54261;SDS011;40174;52.364;6.452;2023-03-05T08:27:56;0.73;;;0.32;;
54261;SDS011;40174;52.364;6.452;2023-03-05T08:30:22;0.82;;;0.38;;
54261;SDS011;40174;52.364;6.452;2023-03-05T08:32:51;1.85;;;1.23;;
54261;SDS011;40174;52.364;6.452;2023-03-05T08:35:19;0.28;;;0.20;;
54261;SDS011;40174;52.364;6.452;2023-03-05T08:37:48;2.40;;;0.40;;
54261;SDS011;40174;52.364;6.452;2023-03-05T08:40:14;1.20;;;0.40;;
54261;SDS011;40174;52.364;6.452;2023-03-05T08:42:44;4.60;;;0.63;;
54261;SDS011;40174;52.364;6.452;2023-03-05T08:45:11;1.77;;;0.50;;
54261;SDS011;40174;52.364;6.452;2023-03-05T08:47:37;1.98;;;0.60;;
54261;SDS011;40174;52.364;6.452;2023-03-05T08:50:05;2.60;;;0.65;;
54261;SDS011;40174;52.364;6.452;2023-03-05T08:52:32;2.30;;;0.77;;
54261;SDS011;40174;52.364;6.452;2023-03-05T08:54:58;3.45;;;0.82;;
54261;SDS011;40174;52.364;6.452;2023-03-05T08:57:25;2.08;;;0.60;;
54261;SDS011;40174;52.364;6.452;2023-03-05T08:59:53;3.13;;;0.80;;
54261;SDS011;40174;52.364;6.452;2023-03-05T09:02:20;2.38;;;0.68;;
54261;SDS011;40174;52.364;6.452;2023-03-05T09:04:47;2.67;;;0.57;;
54261;SDS011;40174;52.364;6.452;2023-03-05T09:07:13;1.45;;;0.65;;
54261;SDS011;40174;52.364;6.452;2023-03-05T09:09:40;4.93;;;0.60;;
54261;SDS011;40174;52.364;6.452;2023-03-05T09:12:07;1.67;;;0.73;;
54261;SDS011;40174;52.364;6.452;2023-03-05T09:14:35;1.98;;;0.70;;
54261;SDS011;40174;52.364;6.452;2023-03-05T09:17:04;3.63;;;0.90;;
54261;SDS011;40174;52.364;6.452;2023-03-05T09:19:30;6.85;;;1.20;;
54261;SDS011;40174;52.364;6.452;2023-03-05T09:21:57;4.00;;;1.05;;
54261;SDS011;40174;52.364;6.452;2023-03-05T09:24:24;4.47;;;0.70;;
54261;SDS011;40174;52.364;6.452;2023-03-05T09:26:50;3.17;;;0.88;;
54261;SDS011;40174;52.364;6.452;2023-03-05T09:29:17;2.67;;;0.75;;
54261;SDS011;40174;52.364;6.452;2023-03-05T09:31:44;4.53;;;0.90;;
54261;SDS011;40174;52.364;6.452;2023-03-05T09:34:14;6.72;;;1.02;;
54261;SDS011;40174;52.364;6.452;2023-03-05T09:36:40;2.35;;;0.70;;
54261;SDS011;40174;52.364;6.452;2023-03-05T09:39:07;7.43;;;0.77;;
54261;SDS011;40174;52.364;6.452;2023-03-05T09:41:36;3.83;;;0.88;;
54261;SDS011;40174;52.364;6.452;2023-03-05T09:44:21;4.25;;;0.70;;
54261;SDS011;40174;52.364;6.452;2023-03-05T09:47:00;3.38;;;0.60;;
54261;SDS011;40174;52.364;6.452;2023-03-05T09:49:38;1.20;;;0.40;;
54261;SDS011;40174;52.364;6.452;2023-03-05T09:52:12;2.13;;;0.68;;
54261;SDS011;40174;52.364;6.452;2023-03-05T09:54:42;4.22;;;0.50;;
54261;SDS011;40174;52.364;6.452;2023-03-05T09:57:12;0.68;;;0.40;;
54261;SDS011;40174;52.364;6.452;2023-03-05T09:59:45;5.50;;;0.70;;
54261;SDS011;40174;52.364;6.452;2023-03-05T10:02:17;1.30;;;0.55;;
54261;SDS011;40174;52.364;6.452;2023-03-05T10:04:48;1.98;;;0.80;;
54261;SDS011;40174;52.364;6.452;2023-03-05T10:07:18;1.52;;;0.63;;
54261;SDS011;40174;52.364;6.452;2023-03-05T10:09:50;2.25;;;0.35;;
54261;SDS011;40174;52.364;6.452;2023-03-05T10:12:22;1.63;;;0.40;;
54261;SDS011;40174;52.364;6.452;2023-03-05T10:14:53;1.70;;;0.52;;
54261;SDS011;40174;52.364;6.452;2023-03-05T10:20:18;3.83;;;0.55;;
54261;SDS011;40174;52.364;6.452;2023-03-05T10:22:57;3.33;;;0.40;;
54261;SDS011;40174;52.364;6.452;2023-03-05T10:25:45;0.98;;;0.30;;
54261;SDS011;40174;52.364;6.452;2023-03-05T10:28:20;0.70;;;0.25;;
54261;SDS011;40174;52.364;6.452;2023-03-05T10:30:56;2.55;;;0.60;;
54261;SDS011;40174;52.364;6.452;2023-03-05T10:33:37;1.15;;;0.47;;
54261;SDS011;40174;52.364;6.452;2023-03-05T10:36:20;6.10;;;0.70;;
54261;SDS011;40174;52.364;6.452;2023-03-05T10:41:59;1.35;;;0.45;;
54261;SDS011;40174;52.364;6.452;2023-03-05T10:44:34;0.80;;;0.50;;
54261;SDS011;40174;52.364;6.452;2023-03-05T10:47:10;2.72;;;0.60;;
54261;SDS011;40174;52.364;6.452;2023-03-05T10:49:43;1.65;;;0.55;;
54261;SDS011;40174;52.364;6.452;2023-03-05T10:52:17;2.78;;;0.68;;
54261;SDS011;40174;52.364;6.452;2023-03-05T10:54:49;3.38;;;0.50;;
54261;SDS011;40174;52.364;6.452;2023-03-05T10:57:16;7.30;;;0.73;;
54261;SDS011;40174;52.364;6.452;2023-03-05T10:59:46;1.38;;;0.35;;
54261;SDS011;40174;52.364;6.452;2023-03-05T11:02:15;4.13;;;0.73;;
54261;SDS011;40174;52.364;6.452;2023-03-05T11:04:42;5.20;;;0.73;;
54261;SDS011;40174;52.364;6.452;2023-03-05T11:10:13;1.00;;;0.40;;
54261;SDS011;40174;52.364;6.452;2023-03-05T11:12:43;1.88;;;0.50;;
54261;SDS011;40174;52.364;6.452;2023-03-05T11:18:06;2.70;;;0.40;;
54261;SDS011;40174;52.364;6.452;2023-03-05T11:20:48;1.75;;;0.57;;
54261;SDS011;40174;52.364;6.452;2023-03-05T11:23:17;4.55;;;0.55;;
54261;SDS011;40174;52.364;6.452;2023-03-05T11:25:50;5.20;;;0.50;;
54261;SDS011;40174;52.364;6.452;2023-03-05T11:28:26;2.92;;;1.08;;
54261;SDS011;40174;52.364;6.452;2023-03-05T11:30:56;1.63;;;0.30;;
54261;SDS011;40174;52.364;6.452;2023-03-05T11:33:26;3.88;;;0.73;;
54261;SDS011;40174;52.364;6.452;2023-03-05T11:36:03;1.27;;;0.38;;
54261;SDS011;40174;52.364;6.452;2023-03-05T11:38:44;6.65;;;0.70;;
54261;SDS011;40174;52.364;6.452;2023-03-05T11:41:12;1.75;;;0.50;;
54261;SDS011;40174;52.364;6.452;2023-03-05T11:43:39;4.85;;;0.47;;
54261;SDS011;40174;52.364;6.452;2023-03-05T11:46:08;8.40;;;0.65;;
54261;SDS011;40174;52.364;6.452;2023-03-05T11:48:38;2.95;;;0.55;;
54261;SDS011;40174;52.364;6.452;2023-03-05T11:51:07;3.85;;;0.40;;
54261;SDS011;40174;52.364;6.452;2023-03-05T11:53:41;1.92;;;0.25;;
54261;SDS011;40174;52.364;6.452;2023-03-05T11:56:13;3.50;;;0.45;;
54261;SDS011;40174;52.364;6.452;2023-03-05T11:58:45;3.72;;;0.68;;
54261;SDS011;40174;52.364;6.452;2023-03-05T12:01:18;2.95;;;0.50;;
54261;SDS011;40174;52.364;6.452;2023-03-05T12:03:46;2.13;;;0.60;;
54261;SDS011;40174;52.364;6.452;2023-03-05T12:06:16;0.63;;;0.45;;
54261;SDS011;40174;52.364;6.452;2023-03-05T12:08:56;0.45;;;0.20;;
54261;SDS011;40174;52.364;6.452;2023-03-05T12:11:26;2.05;;;0.45;;
54261;SDS011;40174;52.364;6.452;2023-03-05T12:13:55;2.20;;;0.50;;
54261;SDS011;40174;52.364;6.452;2023-03-05T12:16:26;2.00;;;0.47;;
54261;SDS011;40174;52.364;6.452;2023-03-05T12:19:00;0.90;;;0.30;;
54261;SDS011;40174;52.364;6.452;2023-03-05T12:21:40;2.17;;;0.30;;
54261;SDS011;40174;52.364;6.452;2023-03-05T12:27:06;1.33;;;0.35;;
54261;SDS011;40174;52.364;6.452;2023-03-05T12:29:48;5.57;;;0.85;;
54261;SDS011;40174;52.364;6.452;2023-03-05T12:35:21;2.55;;;0.50;;
54261;SDS011;40174;52.364;6.452;2023-03-05T12:37:57;1.73;;;0.52;;
54261;SDS011;40174;52.364;6.452;2023-03-05T12:40:40;2.38;;;0.68;;
54261;SDS011;40174;52.364;6.452;2023-03-05T12:43:14;2.55;;;0.30;;
54261;SDS011;40174;52.364;6.452;2023-03-05T12:45:55;1.23;;;0.50;;
54261;SDS011;40174;52.364;6.452;2023-03-05T12:48:50;2.55;;;0.43;;
54261;SDS011;40174;52.364;6.452;2023-03-05T12:51:27;3.25;;;0.52;;
54261;SDS011;40174;52.364;6.452;2023-03-05T12:53:58;2.05;;;0.65;;
54261;SDS011;40174;52.364;6.452;2023-03-05T12:57:00;4.13;;;0.40;;
54261;SDS011;40174;52.364;6.452;2023-03-05T12:59:31;1.30;;;0.50;;
54261;SDS011;40174;52.364;6.452;2023-03-05T13:02:12;3.15;;;0.63;;
54261;SDS011;40174;52.364;6.452;2023-03-05T13:04:44;3.85;;;0.47;;
54261;SDS011;40174;52.364;6.452;2023-03-05T13:07:12;5.35;;;0.85;;
54261;SDS011;40174;52.364;6.452;2023-03-05T13:09:44;1.05;;;0.40;;
54261;SDS011;40174;52.364;6.452;2023-03-05T13:12:18;3.60;;;0.40;;
54261;SDS011;40174;52.364;6.452;2023-03-05T13:14:46;2.55;;;0.60;;
54261;SDS011;40174;52.364;6.452;2023-03-05T13:17:25;0.55;;;0.25;;
54261;SDS011;40174;52.364;6.452;2023-03-05T13:19:53;2.38;;;0.50;;
54261;SDS011;40174;52.364;6.452;2023-03-05T13:22:20;4.90;;;0.73;;
54261;SDS011;40174;52.364;6.452;2023-03-05T13:24:48;1.52;;;0.47;;
54261;SDS011;40174;52.364;6.452;2023-03-05T13:27:21;4.53;;;0.60;;
54261;SDS011;40174;52.364;6.452;2023-03-05T13:29:53;1.30;;;0.50;;
54261;SDS011;40174;52.364;6.452;2023-03-05T13:32:22;1.30;;;0.50;;
54261;SDS011;40174;52.364;6.452;2023-03-05T13:34:51;4.57;;;0.57;;
54261;SDS011;40174;52.364;6.452;2023-03-05T13:37:20;3.58;;;0.40;;
54261;SDS011;40174;52.364;6.452;2023-03-05T13:39:51;3.42;;;0.28;;
54261;SDS011;40174;52.364;6.452;2023-03-05T13:42:23;0.55;;;0.25;;
54261;SDS011;40174;52.364;6.452;2023-03-05T13:44:52;3.15;;;0.40;;
54261;SDS011;40174;52.364;6.452;2023-03-05T13:47:20;0.95;;;0.40;;
54261;SDS011;40174;52.364;6.452;2023-03-05T13:49:53;0.40;;;0.20;;
54261;SDS011;40174;52.364;6.452;2023-03-05T13:52:24;1.02;;;0.40;;
54261;SDS011;40174;52.364;6.452;2023-03-05T13:54:53;0.40;;;0.25;;
54261;SDS011;40174;52.364;6.452;2023-03-05T13:57:35;3.55;;;0.30;;
54261;SDS011;40174;52.364;6.452;2023-03-05T14:00:05;0.30;;;0.30;;
54261;SDS011;40174;52.364;6.452;2023-03-05T14:02:33;1.00;;;0.30;;
54261;SDS011;40174;52.364;6.452;2023-03-05T14:05:00;2.00;;;0.43;;
54261;SDS011;40174;52.364;6.452;2023-03-05T14:07:28;0.95;;;0.43;;
54261;SDS011;40174;52.364;6.452;2023-03-05T14:09:57;1.90;;;0.43;;
54261;SDS011;40174;52.364;6.452;2023-03-05T14:12:27;0.85;;;0.30;;
54261;SDS011;40174;52.364;6.452;2023-03-05T14:15:02;0.28;;;0.20;;
54261;SDS011;40174;52.364;6.452;2023-03-05T14:17:34;0.52;;;0.22;;
54261;SDS011;40174;52.364;6.452;2023-03-05T14:20:21;0.85;;;0.43;;
54261;SDS011;40174;52.364;6.452;2023-03-05T14:22:50;1.20;;;0.50;;
54261;SDS011;40174;52.364;6.452;2023-03-05T14:28:06;3.10;;;0.85;;
54261;SDS011;40174;52.364;6.452;2023-03-05T14:30:51;2.42;;;0.60;;
54261;SDS011;40174;52.364;6.452;2023-03-05T14:33:19;3.58;;;0.30;;
54261;SDS011;40174;52.364;6.452;2023-03-05T14:35:48;4.75;;;0.50;;
54261;SDS011;40174;52.364;6.452;2023-03-05T14:38:17;4.25;;;0.60;;
54261;SDS011;40174;52.364;6.452;2023-03-05T14:40:47;0.30;;;0.30;;
54261;SDS011;40174;52.364;6.452;2023-03-05T14:43:14;2.63;;;0.28;;
54261;SDS011;40174;52.364;6.452;2023-03-05T14:45:41;2.92;;;0.25;;
54261;SDS011;40174;52.364;6.452;2023-03-05T14:48:10;2.92;;;0.38;;
54261;SDS011;40174;52.364;6.452;2023-03-05T14:50:40;0.38;;;0.25;;
54261;SDS011;40174;52.364;6.452;2023-03-05T14:53:12;0.77;;;0.15;;
54261;SDS011;40174;52.364;6.452;2023-03-05T14:55:41;2.80;;;0.90;;
54261;SDS011;40174;52.364;6.452;2023-03-05T14:58:09;2.58;;;0.90;;
54261;SDS011;40174;52.364;6.452;2023-03-05T15:00:39;4.20;;;0.70;;
54261;SDS011;40174;52.364;6.452;2023-03-05T15:03:09;3.80;;;0.40;;
54261;SDS011;40174;52.364;6.452;2023-03-05T15:05:36;2.00;;;0.40;;
54261;SDS011;40174;52.364;6.452;2023-03-05T15:08:04;1.10;;;0.60;;
54261;SDS011;40174;52.364;6.452;2023-03-05T15:10:32;3.45;;;0.80;;
54261;SDS011;40174;52.364;6.452;2023-03-05T15:12:58;1.60;;;0.45;;
54261;SDS011;40174;52.364;6.452;2023-03-05T15:15:25;1.50;;;0.47;;
54261;SDS011;40174;52.364;6.452;2023-03-05T15:17:52;1.70;;;0.40;;
54261;SDS011;40174;52.364;6.452;2023-03-05T15:20:25;5.63;;;0.90;;
54261;SDS011;40174;52.364;6.452;2023-03-05T15:22:53;4.50;;;0.50;;
54261;SDS011;40174;52.364;6.452;2023-03-05T15:25:20;4.88;;;0.50;;
54261;SDS011;40174;52.364;6.452;2023-03-05T15:27:49;1.52;;;0.57;;